sensor_id;sensor_type;location;lat;lon;timestamp;P1;durP1;ratioP1;P2;durP2;ratioP2
11535;SDS011;5824;49.336;8.652;2022-08-19T00:01:30;16.30;;;14.37;;
11535;SDS011;5824;49.336;8.652;2022-08-19T00:03:57;19.10;;;15.27;;
11535;SDS011;5824;49.336;8.652;2022-08-19T00:06:24;18.37;;;14.80;;
11535;SDS011;5824;49.336;8.652;2022-08-19T00:08:50;17.67;;;14.33;;
11535;SDS011;5824;49.336;8.652;2022-08-19T00:11:16;19.50;;;15.37;;
11535;SDS011;5824;49.336;8.652;2022-08-19T00:13:43;19.23;;;15.73;;
11535;SDS011;5824;49.336;8.652;2022-08-19T00:16:10;18.43;;;15.07;;
11535;SDS011;5824;49.336;8.652;2022-08-19T00:18:36;21.33;;;14.90;;
11535;SDS011;5824;49.336;8.652;2022-08-19T00:21:01;21.40;;;14.83;;
11535;SDS011;5824;49.336;8.652;2022-08-19T00:23:28;19.33;;;15.13;;
11535;SDS011;5824;49.336;8.652;2022-08-19T00:25:53;20.20;;;16.10;;
11535;SDS011;5824;49.336;8.652;2022-08-19T00:28:19;24.17;;;15.73;;
11535;SDS011;5824;49.336;8.652;2022-08-19T00:30:45;21.43;;;15.90;;
11535;SDS011;5824;49.336;8.652;2022-08-19T00:33:11;20.67;;;15.23;;
11535;SDS011;5824;49.336;8.652;2022-08-19T00:35:36;22.63;;;15.20;;
11535;SDS011;5824;49.336;8.652;2022-08-19T00:38:03;21.10;;;15.73;;
11535;SDS011;5824;49.336;8.652;2022-08-19T00:40:31;21.77;;;15.93;;
11535;SDS011;5824;49.336;8.652;2022-08-19T00:42:57;21.63;;;15.37;;
11535;SDS011;5824;49.336;8.652;2022-08-19T00:45:23;19.70;;;15.93;;
11535;SDS011;5824;49.336;8.652;2022-08-19T00:47:51;20.23;;;15.40;;
11535;SDS011;5824;49.336;8.652;2022-08-19T00:50:18;22.07;;;15.73;;
11535;SDS011;5824;49.336;8.652;2022-08-19T00:52:46;26.27;;;16.00;;
11535;SDS011;5824;49.336;8.652;2022-08-19T00:55:16;18.90;;;15.13;;
11535;SDS011;5824;49.336;8.652;2022-08-19T00:57:57;20.83;;;16.47;;
11535;SDS011;5824;49.336;8.652;2022-08-19T01:00:27;22.10;;;15.60;;
11535;SDS011;5824;49.336;8.652;2022-08-19T01:02:53;22.43;;;16.83;;
11535;SDS011;5824;49.336;8.652;2022-08-19T01:05:20;23.87;;;15.40;;
11535;SDS011;5824;49.336;8.652;2022-08-19T01:07:52;21.00;;;15.60;;
11535;SDS011;5824;49.336;8.652;2022-08-19T01:10:20;21.17;;;16.43;;
11535;SDS011;5824;49.336;8.652;2022-08-19T01:12:50;22.57;;;17.50;;
11535;SDS011;5824;49.336;8.652;2022-08-19T01:15:19;20.57;;;16.13;;
11535;SDS011;5824;49.336;8.652;2022-08-19T01:17:49;22.53;;;16.87;;
11535;SDS011;5824;49.336;8.652;2022-08-19T01:20:18;22.37;;;17.13;;
11535;SDS011;5824;49.336;8.652;2022-08-19T01:22:49;22.67;;;15.93;;
11535;SDS011;5824;49.336;8.652;2022-08-19T01:25:28;20.13;;;15.70;;
11535;SDS011;5824;49.336;8.652;2022-08-19T01:27:56;25.27;;;17.53;;
11535;SDS011;5824;49.336;8.652;2022-08-19T01:30:28;23.20;;;16.17;;
11535;SDS011;5824;49.336;8.652;2022-08-19T01:32:55;29.63;;;17.90;;
11535;SDS011;5824;49.336;8.652;2022-08-19T01:35:22;21.90;;;17.30;;
11535;SDS011;5824;49.336;8.652;2022-08-19T01:40:20;23.70;;;18.00;;
11535;SDS011;5824;49.336;8.652;2022-08-19T01:42:48;24.60;;;18.70;;
11535;SDS011;5824;49.336;8.652;2022-08-19T01:45:15;26.40;;;19.10;;
11535;SDS011;5824;49.336;8.652;2022-08-19T01:47:41;23.70;;;19.40;;
11535;SDS011;5824;49.336;8.652;2022-08-19T01:50:07;24.73;;;18.77;;
11535;SDS011;5824;49.336;8.652;2022-08-19T01:52:36;27.33;;;20.57;;
11535;SDS011;5824;49.336;8.652;2022-08-19T01:55:03;25.67;;;20.07;;
11535;SDS011;5824;49.336;8.652;2022-08-19T01:57:30;24.67;;;18.60;;
11535;SDS011;5824;49.336;8.652;2022-08-19T01:59:56;28.37;;;19.20;;
11535;SDS011;5824;49.336;8.652;2022-08-19T02:02:22;23.30;;;17.03;;
11535;SDS011;5824;49.336;8.652;2022-08-19T02:04:48;24.03;;;17.60;;
11535;SDS011;5824;49.336;8.652;2022-08-19T02:07:13;21.80;;;18.27;;
11535;SDS011;5824;49.336;8.652;2022-08-19T02:09:39;24.43;;;19.17;;
11535;SDS011;5824;49.336;8.652;2022-08-19T02:12:06;23.03;;;18.03;;
11535;SDS011;5824;49.336;8.652;2022-08-19T02:14:33;24.43;;;18.63;;
11535;SDS011;5824;49.336;8.652;2022-08-19T02:16:59;23.50;;;18.40;;
11535;SDS011;5824;49.336;8.652;2022-08-19T02:19:25;24.97;;;19.00;;
11535;SDS011;5824;49.336;8.652;2022-08-19T02:21:50;24.17;;;19.00;;
11535;SDS011;5824;49.336;8.652;2022-08-19T02:24:16;25.13;;;18.30;;
11535;SDS011;5824;49.336;8.652;2022-08-19T02:26:41;22.63;;;17.30;;
11535;SDS011;5824;49.336;8.652;2022-08-19T02:29:07;25.03;;;17.83;;
11535;SDS011;5824;49.336;8.652;2022-08-19T02:31:32;24.00;;;18.03;;
11535;SDS011;5824;49.336;8.652;2022-08-19T02:33:58;25.20;;;18.70;;
11535;SDS011;5824;49.336;8.652;2022-08-19T02:36:24;24.90;;;19.73;;
11535;SDS011;5824;49.336;8.652;2022-08-19T02:38:50;25.37;;;19.20;;
11535;SDS011;5824;49.336;8.652;2022-08-19T02:41:20;26.10;;;19.20;;
11535;SDS011;5824;49.336;8.652;2022-08-19T02:43:51;25.93;;;19.67;;
11535;SDS011;5824;49.336;8.652;2022-08-19T02:46:22;26.47;;;19.80;;
11535;SDS011;5824;49.336;8.652;2022-08-19T02:48:54;23.70;;;19.17;;
11535;SDS011;5824;49.336;8.652;2022-08-19T02:51:23;26.70;;;18.73;;
11535;SDS011;5824;49.336;8.652;2022-08-19T02:53:54;25.23;;;20.80;;
11535;SDS011;5824;49.336;8.652;2022-08-19T02:56:20;23.47;;;19.20;;
11535;SDS011;5824;49.336;8.652;2022-08-19T02:58:46;28.03;;;21.17;;
11535;SDS011;5824;49.336;8.652;2022-08-19T03:01:23;28.47;;;20.63;;
11535;SDS011;5824;49.336;8.652;2022-08-19T03:03:51;25.23;;;20.07;;
11535;SDS011;5824;49.336;8.652;2022-08-19T03:06:18;27.90;;;19.90;;
11535;SDS011;5824;49.336;8.652;2022-08-19T03:08:45;25.47;;;20.27;;
11535;SDS011;5824;49.336;8.652;2022-08-19T03:11:16;30.50;;;21.00;;
11535;SDS011;5824;49.336;8.652;2022-08-19T03:13:47;25.60;;;20.70;;
11535;SDS011;5824;49.336;8.652;2022-08-19T03:16:16;24.87;;;18.63;;
11535;SDS011;5824;49.336;8.652;2022-08-19T03:18:43;28.13;;;20.40;;
11535;SDS011;5824;49.336;8.652;2022-08-19T03:21:09;30.30;;;19.43;;
11535;SDS011;5824;49.336;8.652;2022-08-19T03:23:43;26.67;;;19.77;;
11535;SDS011;5824;49.336;8.652;2022-08-19T03:26:09;27.47;;;22.10;;
11535;SDS011;5824;49.336;8.652;2022-08-19T03:28:34;26.17;;;20.63;;
11535;SDS011;5824;49.336;8.652;2022-08-19T03:31:02;27.77;;;21.30;;
11535;SDS011;5824;49.336;8.652;2022-08-19T03:33:31;25.23;;;20.70;;
11535;SDS011;5824;49.336;8.652;2022-08-19T03:36:02;25.37;;;21.27;;
11535;SDS011;5824;49.336;8.652;2022-08-19T03:38:30;28.27;;;21.70;;
11535;SDS011;5824;49.336;8.652;2022-08-19T03:40:57;26.23;;;21.00;;
11535;SDS011;5824;49.336;8.652;2022-08-19T03:43:22;29.67;;;21.93;;
11535;SDS011;5824;49.336;8.652;2022-08-19T03:45:48;26.43;;;21.40;;
11535;SDS011;5824;49.336;8.652;2022-08-19T03:48:14;29.73;;;22.37;;
11535;SDS011;5824;49.336;8.652;2022-08-19T03:50:42;25.27;;;20.93;;
11535;SDS011;5824;49.336;8.652;2022-08-19T03:53:08;25.53;;;21.27;;
11535;SDS011;5824;49.336;8.652;2022-08-19T03:55:33;25.97;;;21.07;;
11535;SDS011;5824;49.336;8.652;2022-08-19T03:58:03;26.20;;;22.00;;
11535;SDS011;5824;49.336;8.652;2022-08-19T04:00:29;28.93;;;21.63;;
11535;SDS011;5824;49.336;8.652;2022-08-19T04:02:54;28.87;;;22.77;;
11535;SDS011;5824;49.336;8.652;2022-08-19T04:05:20;29.50;;;22.80;;
11535;SDS011;5824;49.336;8.652;2022-08-19T04:07:45;28.33;;;22.30;;
11535;SDS011;5824;49.336;8.652;2022-08-19T04:10:11;26.40;;;22.30;;
11535;SDS011;5824;49.336;8.652;2022-08-19T04:12:36;28.17;;;22.40;;
11535;SDS011;5824;49.336;8.652;2022-08-19T04:15:02;26.67;;;21.70;;
11535;SDS011;5824;49.336;8.652;2022-08-19T04:17:28;30.27;;;20.97;;
11535;SDS011;5824;49.336;8.652;2022-08-19T04:19:54;28.40;;;23.37;;
11535;SDS011;5824;49.336;8.652;2022-08-19T04:22:20;27.80;;;21.90;;
11535;SDS011;5824;49.336;8.652;2022-08-19T04:24:46;25.53;;;22.37;;
11535;SDS011;5824;49.336;8.652;2022-08-19T04:27:11;27.67;;;21.90;;
11535;SDS011;5824;49.336;8.652;2022-08-19T04:29:37;25.73;;;22.30;;
11535;SDS011;5824;49.336;8.652;2022-08-19T04:32:04;25.40;;;21.50;;
11535;SDS011;5824;49.336;8.652;2022-08-19T04:34:30;29.97;;;22.20;;
11535;SDS011;5824;49.336;8.652;2022-08-19T04:36:57;30.00;;;22.53;;
11535;SDS011;5824;49.336;8.652;2022-08-19T04:39:28;27.23;;;21.73;;
11535;SDS011;5824;49.336;8.652;2022-08-19T04:42:14;27.57;;;21.70;;
11535;SDS011;5824;49.336;8.652;2022-08-19T04:45:02;29.40;;;23.13;;
11535;SDS011;5824;49.336;8.652;2022-08-19T04:47:30;28.27;;;22.57;;
11535;SDS011;5824;49.336;8.652;2022-08-19T04:49:57;29.17;;;23.60;;
11535;SDS011;5824;49.336;8.652;2022-08-19T04:52:23;30.57;;;23.37;;
11535;SDS011;5824;49.336;8.652;2022-08-19T04:54:49;27.80;;;21.67;;
11535;SDS011;5824;49.336;8.652;2022-08-19T04:57:14;31.47;;;23.43;;
11535;SDS011;5824;49.336;8.652;2022-08-19T04:59:40;28.33;;;22.40;;
11535;SDS011;5824;49.336;8.652;2022-08-19T05:02:06;27.07;;;23.43;;
11535;SDS011;5824;49.336;8.652;2022-08-19T05:04:33;31.10;;;23.23;;
11535;SDS011;5824;49.336;8.652;2022-08-19T05:07:00;30.33;;;23.63;;
11535;SDS011;5824;49.336;8.652;2022-08-19T05:09:26;32.23;;;23.20;;
11535;SDS011;5824;49.336;8.652;2022-08-19T05:11:52;28.57;;;22.20;;
11535;SDS011;5824;49.336;8.652;2022-08-19T05:14:18;28.60;;;22.53;;
11535;SDS011;5824;49.336;8.652;2022-08-19T05:16:45;28.33;;;22.47;;
11535;SDS011;5824;49.336;8.652;2022-08-19T05:19:11;27.67;;;22.67;;
11535;SDS011;5824;49.336;8.652;2022-08-19T05:21:56;30.63;;;22.50;;
11535;SDS011;5824;49.336;8.652;2022-08-19T05:24:40;29.23;;;22.03;;
11535;SDS011;5824;49.336;8.652;2022-08-19T05:27:06;27.50;;;21.37;;
11535;SDS011;5824;49.336;8.652;2022-08-19T05:29:32;28.07;;;22.70;;
11535;SDS011;5824;49.336;8.652;2022-08-19T05:32:02;31.13;;;22.87;;
11535;SDS011;5824;49.336;8.652;2022-08-19T05:34:30;32.57;;;22.97;;
11535;SDS011;5824;49.336;8.652;2022-08-19T05:36:58;28.33;;;22.47;;
11535;SDS011;5824;49.336;8.652;2022-08-19T05:39:25;28.87;;;22.73;;
11535;SDS011;5824;49.336;8.652;2022-08-19T05:41:56;29.10;;;21.03;;
11535;SDS011;5824;49.336;8.652;2022-08-19T05:44:31;27.57;;;21.43;;
11535;SDS011;5824;49.336;8.652;2022-08-19T05:46:57;29.33;;;21.63;;
11535;SDS011;5824;49.336;8.652;2022-08-19T05:49:25;30.97;;;21.60;;
11535;SDS011;5824;49.336;8.652;2022-08-19T05:51:51;30.53;;;23.00;;
11535;SDS011;5824;49.336;8.652;2022-08-19T05:54:18;33.67;;;22.27;;
11535;SDS011;5824;49.336;8.652;2022-08-19T05:56:44;28.30;;;22.57;;
11535;SDS011;5824;49.336;8.652;2022-08-19T05:59:12;29.53;;;22.20;;
11535;SDS011;5824;49.336;8.652;2022-08-19T06:01:40;27.40;;;22.30;;
11535;SDS011;5824;49.336;8.652;2022-08-19T06:04:07;27.50;;;21.60;;
11535;SDS011;5824;49.336;8.652;2022-08-19T06:06:34;27.43;;;22.00;;
11535;SDS011;5824;49.336;8.652;2022-08-19T06:09:04;25.90;;;20.30;;
11535;SDS011;5824;49.336;8.652;2022-08-19T06:11:34;25.03;;;20.10;;
11535;SDS011;5824;49.336;8.652;2022-08-19T06:14:15;31.50;;;22.40;;
11535;SDS011;5824;49.336;8.652;2022-08-19T06:16:43;26.23;;;20.83;;
11535;SDS011;5824;49.336;8.652;2022-08-19T06:19:10;24.63;;;20.70;;
11535;SDS011;5824;49.336;8.652;2022-08-19T06:21:39;28.43;;;22.20;;
11535;SDS011;5824;49.336;8.652;2022-08-19T06:24:07;29.97;;;20.90;;
11535;SDS011;5824;49.336;8.652;2022-08-19T06:26:36;26.10;;;20.47;;
11535;SDS011;5824;49.336;8.652;2022-08-19T06:29:04;25.20;;;20.20;;
11535;SDS011;5824;49.336;8.652;2022-08-19T06:31:31;29.70;;;19.90;;
11535;SDS011;5824;49.336;8.652;2022-08-19T06:33:59;31.17;;;19.83;;
11535;SDS011;5824;49.336;8.652;2022-08-19T06:36:28;27.33;;;19.20;;
11535;SDS011;5824;49.336;8.652;2022-08-19T06:38:58;22.77;;;19.20;;
11535;SDS011;5824;49.336;8.652;2022-08-19T06:41:30;27.53;;;19.90;;
11535;SDS011;5824;49.336;8.652;2022-08-19T06:43:58;22.97;;;19.37;;
11535;SDS011;5824;49.336;8.652;2022-08-19T06:46:24;22.47;;;17.60;;
11535;SDS011;5824;49.336;8.652;2022-08-19T06:48:51;26.13;;;17.73;;
11535;SDS011;5824;49.336;8.652;2022-08-19T06:51:18;18.90;;;16.40;;
11535;SDS011;5824;49.336;8.652;2022-08-19T06:53:49;21.07;;;17.80;;
11535;SDS011;5824;49.336;8.652;2022-08-19T06:56:17;19.17;;;17.10;;
11535;SDS011;5824;49.336;8.652;2022-08-19T06:58:44;20.50;;;16.60;;
11535;SDS011;5824;49.336;8.652;2022-08-19T07:01:11;20.93;;;17.40;;
11535;SDS011;5824;49.336;8.652;2022-08-19T07:03:37;20.53;;;16.50;;
11535;SDS011;5824;49.336;8.652;2022-08-19T07:06:09;21.97;;;16.33;;
11535;SDS011;5824;49.336;8.652;2022-08-19T07:08:37;19.00;;;16.27;;
11535;SDS011;5824;49.336;8.652;2022-08-19T07:11:06;18.00;;;15.80;;
11535;SDS011;5824;49.336;8.652;2022-08-19T07:13:34;19.40;;;17.00;;
11535;SDS011;5824;49.336;8.652;2022-08-19T07:16:10;20.20;;;17.30;;
11535;SDS011;5824;49.336;8.652;2022-08-19T07:18:38;20.40;;;17.00;;
11535;SDS011;5824;49.336;8.652;2022-08-19T07:21:11;21.60;;;16.70;;
11535;SDS011;5824;49.336;8.652;2022-08-19T07:23:39;21.73;;;16.77;;
11535;SDS011;5824;49.336;8.652;2022-08-19T07:26:10;18.13;;;15.87;;
11535;SDS011;5824;49.336;8.652;2022-08-19T07:28:44;20.20;;;16.50;;
11535;SDS011;5824;49.336;8.652;2022-08-19T07:31:12;18.80;;;15.47;;
11535;SDS011;5824;49.336;8.652;2022-08-19T07:33:39;21.40;;;16.50;;
11535;SDS011;5824;49.336;8.652;2022-08-19T07:36:06;17.93;;;15.83;;
11535;SDS011;5824;49.336;8.652;2022-08-19T07:38:33;18.17;;;14.63;;
11535;SDS011;5824;49.336;8.652;2022-08-19T07:40:59;23.00;;;16.33;;
11535;SDS011;5824;49.336;8.652;2022-08-19T07:43:26;16.73;;;14.80;;
11535;SDS011;5824;49.336;8.652;2022-08-19T07:45:52;22.17;;;15.03;;
11535;SDS011;5824;49.336;8.652;2022-08-19T07:48:22;19.83;;;15.20;;
11535;SDS011;5824;49.336;8.652;2022-08-19T07:50:50;18.60;;;15.47;;
11535;SDS011;5824;49.336;8.652;2022-08-19T07:53:23;18.70;;;14.90;;
11535;SDS011;5824;49.336;8.652;2022-08-19T07:55:50;18.97;;;14.57;;
11535;SDS011;5824;49.336;8.652;2022-08-19T07:58:18;20.70;;;13.90;;
11535;SDS011;5824;49.336;8.652;2022-08-19T08:00:46;19.40;;;14.97;;
11535;SDS011;5824;49.336;8.652;2022-08-19T08:03:13;17.43;;;14.80;;
11535;SDS011;5824;49.336;8.652;2022-08-19T08:05:40;16.20;;;13.80;;
11535;SDS011;5824;49.336;8.652;2022-08-19T08:08:25;19.47;;;14.47;;
11535;SDS011;5824;49.336;8.652;2022-08-19T08:11:09;16.90;;;13.57;;
11535;SDS011;5824;49.336;8.652;2022-08-19T08:13:36;18.57;;;13.13;;
11535;SDS011;5824;49.336;8.652;2022-08-19T08:16:02;16.87;;;14.10;;
11535;SDS011;5824;49.336;8.652;2022-08-19T08:18:28;18.07;;;13.60;;
11535;SDS011;5824;49.336;8.652;2022-08-19T08:20:54;15.10;;;13.50;;
11535;SDS011;5824;49.336;8.652;2022-08-19T08:23:20;16.30;;;12.80;;
11535;SDS011;5824;49.336;8.652;2022-08-19T08:25:55;17.60;;;12.87;;
11535;SDS011;5824;49.336;8.652;2022-08-19T08:28:22;13.20;;;11.70;;
11535;SDS011;5824;49.336;8.652;2022-08-19T08:30:48;18.23;;;12.65;;
11535;SDS011;5824;49.336;8.652;2022-08-19T08:33:19;18.60;;;10.40;;
11535;SDS011;5824;49.336;8.652;2022-08-19T08:35:46;15.68;;;11.63;;
11535;SDS011;5824;49.336;8.652;2022-08-19T08:38:12;12.25;;;10.95;;
11535;SDS011;5824;49.336;8.652;2022-08-19T08:45:47;13.07;;;9.80;;
11535;SDS011;5824;49.336;8.652;2022-08-19T08:48:24;10.93;;;9.82;;
11535;SDS011;5824;49.336;8.652;2022-08-19T08:51:02;13.13;;;9.20;;
11535;SDS011;5824;49.336;8.652;2022-08-19T08:53:30;9.98;;;8.82;;
11535;SDS011;5824;49.336;8.652;2022-08-19T08:55:58;10.23;;;8.95;;
11535;SDS011;5824;49.336;8.652;2022-08-19T08:58:44;8.93;;;8.02;;
11535;SDS011;5824;49.336;8.652;2022-08-19T09:01:16;8.02;;;7.22;;
11535;SDS011;5824;49.336;8.652;2022-08-19T09:03:42;11.43;;;7.63;;
11535;SDS011;5824;49.336;8.652;2022-08-19T09:08:59;9.57;;;7.65;;
11535;SDS011;5824;49.336;8.652;2022-08-19T09:17:03;7.78;;;6.70;;
11535;SDS011;5824;49.336;8.652;2022-08-19T09:19:32;8.35;;;6.22;;
11535;SDS011;5824;49.336;8.652;2022-08-19T09:22:00;7.10;;;5.93;;
11535;SDS011;5824;49.336;8.652;2022-08-19T09:24:25;12.75;;;6.60;;
11535;SDS011;5824;49.336;8.652;2022-08-19T09:26:51;7.10;;;6.30;;
11535;SDS011;5824;49.336;8.652;2022-08-19T09:29:17;10.73;;;6.93;;
11535;SDS011;5824;49.336;8.652;2022-08-19T09:31:42;7.45;;;6.70;;
11535;SDS011;5824;49.336;8.652;2022-08-19T09:34:08;8.77;;;6.97;;
11535;SDS011;5824;49.336;8.652;2022-08-19T09:36:33;7.68;;;6.70;;
11535;SDS011;5824;49.336;8.652;2022-08-19T09:39:02;6.78;;;5.82;;
11535;SDS011;5824;49.336;8.652;2022-08-19T09:41:28;7.55;;;6.38;;
11535;SDS011;5824;49.336;8.652;2022-08-19T09:43:55;14.05;;;6.35;;
11535;SDS011;5824;49.336;8.652;2022-08-19T09:46:22;7.20;;;6.50;;
11535;SDS011;5824;49.336;8.652;2022-08-19T09:48:51;7.68;;;6.18;;
11535;SDS011;5824;49.336;8.652;2022-08-19T09:51:24;8.30;;;5.80;;
11535;SDS011;5824;49.336;8.652;2022-08-19T09:53:53;8.15;;;6.72;;
11535;SDS011;5824;49.336;8.652;2022-08-19T09:56:20;7.95;;;6.40;;
11535;SDS011;5824;49.336;8.652;2022-08-19T09:58:46;7.55;;;6.10;;
11535;SDS011;5824;49.336;8.652;2022-08-19T10:01:19;6.45;;;5.78;;
11535;SDS011;5824;49.336;8.652;2022-08-19T10:03:49;6.65;;;5.95;;
11535;SDS011;5824;49.336;8.652;2022-08-19T10:06:16;8.95;;;5.50;;
11535;SDS011;5824;49.336;8.652;2022-08-19T10:08:42;8.80;;;5.68;;
11535;SDS011;5824;49.336;8.652;2022-08-19T10:11:09;5.88;;;5.28;;
11535;SDS011;5824;49.336;8.652;2022-08-19T10:13:35;6.32;;;5.70;;
11535;SDS011;5824;49.336;8.652;2022-08-19T10:16:03;8.23;;;6.50;;
11535;SDS011;5824;49.336;8.652;2022-08-19T10:18:31;8.35;;;6.20;;
11535;SDS011;5824;49.336;8.652;2022-08-19T10:21:04;8.10;;;6.25;;
11535;SDS011;5824;49.336;8.652;2022-08-19T10:23:34;6.90;;;6.10;;
11535;SDS011;5824;49.336;8.652;2022-08-19T10:26:05;7.43;;;6.65;;
11535;SDS011;5824;49.336;8.652;2022-08-19T10:28:32;8.80;;;6.47;;
11535;SDS011;5824;49.336;8.652;2022-08-19T10:31:06;8.65;;;6.63;;
11535;SDS011;5824;49.336;8.652;2022-08-19T10:33:33;8.05;;;6.38;;
11535;SDS011;5824;49.336;8.652;2022-08-19T10:36:00;8.93;;;6.85;;
11535;SDS011;5824;49.336;8.652;2022-08-19T10:38:27;6.50;;;5.90;;
11535;SDS011;5824;49.336;8.652;2022-08-19T10:40:53;7.50;;;6.70;;
11535;SDS011;5824;49.336;8.652;2022-08-19T10:43:19;6.97;;;5.82;;
11535;SDS011;5824;49.336;8.652;2022-08-19T10:45:48;6.50;;;5.80;;
11535;SDS011;5824;49.336;8.652;2022-08-19T10:48:21;6.75;;;5.43;;
11535;SDS011;5824;49.336;8.652;2022-08-19T10:50:46;9.48;;;6.28;;
11535;SDS011;5824;49.336;8.652;2022-08-19T10:53:30;8.23;;;6.40;;
11535;SDS011;5824;49.336;8.652;2022-08-19T10:55:56;6.65;;;5.70;;
11535;SDS011;5824;49.336;8.652;2022-08-19T10:58:40;10.38;;;7.00;;
11535;SDS011;5824;49.336;8.652;2022-08-19T11:01:06;7.15;;;5.80;;
11535;SDS011;5824;49.336;8.652;2022-08-19T11:03:32;11.63;;;5.75;;
11535;SDS011;5824;49.336;8.652;2022-08-19T11:06:03;7.15;;;5.90;;
11535;SDS011;5824;49.336;8.652;2022-08-19T11:08:31;9.18;;;5.55;;
11535;SDS011;5824;49.336;8.652;2022-08-19T11:10:58;6.65;;;5.63;;
11535;SDS011;5824;49.336;8.652;2022-08-19T11:13:37;9.75;;;6.03;;
11535;SDS011;5824;49.336;8.652;2022-08-19T11:16:08;7.35;;;5.80;;
11535;SDS011;5824;49.336;8.652;2022-08-19T11:18:40;7.25;;;6.07;;
11535;SDS011;5824;49.336;8.652;2022-08-19T11:21:12;10.05;;;6.63;;
11535;SDS011;5824;49.336;8.652;2022-08-19T11:23:44;7.35;;;6.30;;
11535;SDS011;5824;49.336;8.652;2022-08-19T11:26:11;7.20;;;5.93;;
11535;SDS011;5824;49.336;8.652;2022-08-19T11:28:37;8.45;;;6.28;;
11535;SDS011;5824;49.336;8.652;2022-08-19T11:31:03;9.07;;;6.45;;
11535;SDS011;5824;49.336;8.652;2022-08-19T11:33:30;7.05;;;6.40;;
11535;SDS011;5824;49.336;8.652;2022-08-19T11:35:58;7.78;;;7.00;;
11535;SDS011;5824;49.336;8.652;2022-08-19T11:38:26;8.07;;;7.28;;
11535;SDS011;5824;49.336;8.652;2022-08-19T11:40:58;7.90;;;7.20;;
11535;SDS011;5824;49.336;8.652;2022-08-19T11:43:27;12.65;;;7.68;;
11535;SDS011;5824;49.336;8.652;2022-08-19T11:45:53;8.73;;;7.90;;
11535;SDS011;5824;49.336;8.652;2022-08-19T11:48:20;9.77;;;8.82;;
11535;SDS011;5824;49.336;8.652;2022-08-19T11:50:46;10.48;;;8.52;;
11535;SDS011;5824;49.336;8.652;2022-08-19T11:53:22;8.73;;;7.60;;
11535;SDS011;5824;49.336;8.652;2022-08-19T11:55:48;9.02;;;8.13;;
11535;SDS011;5824;49.336;8.652;2022-08-19T11:58:14;8.95;;;7.88;;
11535;SDS011;5824;49.336;8.652;2022-08-19T12:00:42;8.88;;;7.93;;
11535;SDS011;5824;49.336;8.652;2022-08-19T12:03:10;12.63;;;8.05;;
11535;SDS011;5824;49.336;8.652;2022-08-19T12:05:37;11.48;;;8.55;;
11535;SDS011;5824;49.336;8.652;2022-08-19T12:08:04;9.60;;;8.52;;
11535;SDS011;5824;49.336;8.652;2022-08-19T12:10:31;9.60;;;8.70;;
11535;SDS011;5824;49.336;8.652;2022-08-19T12:12:57;9.60;;;8.18;;
11535;SDS011;5824;49.336;8.652;2022-08-19T12:15:23;20.25;;;8.02;;
11535;SDS011;5824;49.336;8.652;2022-08-19T12:17:48;9.10;;;8.15;;
11535;SDS011;5824;49.336;8.652;2022-08-19T12:20:14;9.23;;;8.00;;
11535;SDS011;5824;49.336;8.652;2022-08-19T12:22:41;10.65;;;8.70;;
11535;SDS011;5824;49.336;8.652;2022-08-19T12:25:09;9.32;;;8.43;;
11535;SDS011;5824;49.336;8.652;2022-08-19T12:27:35;8.10;;;7.30;;
11535;SDS011;5824;49.336;8.652;2022-08-19T12:30:04;8.45;;;7.60;;
11535;SDS011;5824;49.336;8.652;2022-08-19T12:32:31;8.52;;;7.72;;
11535;SDS011;5824;49.336;8.652;2022-08-19T12:34:57;8.60;;;7.63;;
11535;SDS011;5824;49.336;8.652;2022-08-19T12:37:22;8.50;;;7.70;;
11535;SDS011;5824;49.336;8.652;2022-08-19T12:39:48;9.82;;;7.93;;
11535;SDS011;5824;49.336;8.652;2022-08-19T12:42:13;9.27;;;7.57;;
11535;SDS011;5824;49.336;8.652;2022-08-19T12:44:40;9.10;;;7.75;;
11535;SDS011;5824;49.336;8.652;2022-08-19T12:47:08;8.68;;;7.88;;
11535;SDS011;5824;49.336;8.652;2022-08-19T12:49:34;10.18;;;7.60;;
11535;SDS011;5824;49.336;8.652;2022-08-19T12:52:03;8.50;;;7.80;;
11535;SDS011;5824;49.336;8.652;2022-08-19T12:54:29;8.82;;;8.00;;
11535;SDS011;5824;49.336;8.652;2022-08-19T12:56:55;7.70;;;6.90;;
11535;SDS011;5824;49.336;8.652;2022-08-19T12:59:21;8.20;;;7.40;;
11535;SDS011;5824;49.336;8.652;2022-08-19T13:01:47;8.20;;;7.40;;
11535;SDS011;5824;49.336;8.652;2022-08-19T13:04:12;9.55;;;7.40;;
11535;SDS011;5824;49.336;8.652;2022-08-19T13:06:38;8.00;;;6.95;;
11535;SDS011;5824;49.336;8.652;2022-08-19T13:09:04;7.47;;;6.78;;
11535;SDS011;5824;49.336;8.652;2022-08-19T13:11:30;9.32;;;6.82;;
11535;SDS011;5824;49.336;8.652;2022-08-19T13:13:58;7.63;;;6.90;;
11535;SDS011;5824;49.336;8.652;2022-08-19T13:16:24;8.13;;;6.55;;
11535;SDS011;5824;49.336;8.652;2022-08-19T13:18:50;7.60;;;6.90;;
11535;SDS011;5824;49.336;8.652;2022-08-19T13:21:19;7.15;;;6.22;;
11535;SDS011;5824;49.336;8.652;2022-08-19T13:23:46;7.10;;;6.45;;
11535;SDS011;5824;49.336;8.652;2022-08-19T13:26:12;8.77;;;6.25;;
11535;SDS011;5824;49.336;8.652;2022-08-19T13:28:39;6.53;;;5.65;;
11535;SDS011;5824;49.336;8.652;2022-08-19T13:31:25;7.10;;;6.40;;
11535;SDS011;5824;49.336;8.652;2022-08-19T13:34:11;7.40;;;5.88;;
11535;SDS011;5824;49.336;8.652;2022-08-19T13:36:37;8.20;;;6.20;;
11535;SDS011;5824;49.336;8.652;2022-08-19T13:39:04;8.15;;;5.93;;
11535;SDS011;5824;49.336;8.652;2022-08-19T13:41:30;8.18;;;5.28;;
11535;SDS011;5824;49.336;8.652;2022-08-19T13:43:56;5.40;;;4.90;;
11535;SDS011;5824;49.336;8.652;2022-08-19T13:46:22;5.80;;;5.30;;
11535;SDS011;5824;49.336;8.652;2022-08-19T13:48:47;6.78;;;5.28;;
11535;SDS011;5824;49.336;8.652;2022-08-19T13:51:13;5.95;;;4.85;;
11535;SDS011;5824;49.336;8.652;2022-08-19T13:53:41;7.65;;;5.45;;
11535;SDS011;5824;49.336;8.652;2022-08-19T13:56:12;5.10;;;4.70;;
11535;SDS011;5824;49.336;8.652;2022-08-19T13:58:40;5.55;;;5.05;;
11535;SDS011;5824;49.336;8.652;2022-08-19T14:01:06;5.93;;;5.25;;
11535;SDS011;5824;49.336;8.652;2022-08-19T14:03:32;6.05;;;5.45;;
11535;SDS011;5824;49.336;8.652;2022-08-19T14:05:58;7.40;;;5.50;;
11535;SDS011;5824;49.336;8.652;2022-08-19T14:08:24;7.40;;;5.72;;
11535;SDS011;5824;49.336;8.652;2022-08-19T14:10:52;12.85;;;5.95;;
11535;SDS011;5824;49.336;8.652;2022-08-19T14:13:19;6.20;;;5.60;;
11535;SDS011;5824;49.336;8.652;2022-08-19T14:15:46;6.07;;;5.43;;
11535;SDS011;5824;49.336;8.652;2022-08-19T14:18:12;8.63;;;6.03;;
11535;SDS011;5824;49.336;8.652;2022-08-19T14:20:39;6.75;;;6.05;;
11535;SDS011;5824;49.336;8.652;2022-08-19T14:23:05;6.15;;;5.55;;
11535;SDS011;5824;49.336;8.652;2022-08-19T14:25:30;8.10;;;5.63;;
11535;SDS011;5824;49.336;8.652;2022-08-19T14:27:57;5.82;;;4.72;;
11535;SDS011;5824;49.336;8.652;2022-08-19T14:30:30;6.25;;;5.40;;
11535;SDS011;5824;49.336;8.652;2022-08-19T14:32:58;7.20;;;4.95;;
11535;SDS011;5824;49.336;8.652;2022-08-19T14:35:25;6.22;;;5.35;;
11535;SDS011;5824;49.336;8.652;2022-08-19T14:37:54;10.68;;;5.80;;
11535;SDS011;5824;49.336;8.652;2022-08-19T14:40:21;7.32;;;5.45;;
11535;SDS011;5824;49.336;8.652;2022-08-19T14:42:55;5.80;;;5.18;;
11535;SDS011;5824;49.336;8.652;2022-08-19T14:45:24;5.90;;;5.30;;
11535;SDS011;5824;49.336;8.652;2022-08-19T14:47:51;13.30;;;5.35;;
11535;SDS011;5824;49.336;8.652;2022-08-19T14:50:17;5.80;;;4.95;;
11535;SDS011;5824;49.336;8.652;2022-08-19T14:52:44;5.53;;;4.80;;
11535;SDS011;5824;49.336;8.652;2022-08-19T14:55:12;6.22;;;5.63;;
11535;SDS011;5824;49.336;8.652;2022-08-19T14:57:40;6.60;;;5.10;;
11535;SDS011;5824;49.336;8.652;2022-08-19T15:00:06;6.95;;;5.10;;
11535;SDS011;5824;49.336;8.652;2022-08-19T15:02:33;5.85;;;5.20;;
11535;SDS011;5824;49.336;8.652;2022-08-19T15:04:58;5.97;;;4.95;;
11535;SDS011;5824;49.336;8.652;2022-08-19T15:07:24;6.25;;;4.90;;